Latest Coastal Weather Observations for Eucla

IDS60701

Issued at 12:25 pm CDT Thursday 27 November 2014 (issued every 10 minutes, with the page automatically refreshed every 10 minutes)

About coastal observations | Map of coastal stations | Coastal observations for SA | Marine services | Other Formats
Station Details ID: 011003 Name: EUCLA Lat: -31.68 Lon: 128.90 Height: 93.1 m
Data from the previous 72 hours. | See also: Recent months at Eucla
Date/Time
CDT
Temp

°C
Wind Pressure Rain
since 9am
mm
Weather Cloud Vis
km
Sea
Height
m
Swell
Dir
 
Speed
knots
Gust
knots
hPa Trend Height
m
Period
s
Dir
27/12:00pm 21.3 ESE 10 15 1019.7 - 0.0 - - - - - - -
27/11:30am 21.2 ESE 10 15 1019.8 - 0.0 - - - - - - -
27/11:00am 21.1 ESE 11 16 1019.5 - 0.0 - - - - - - -
27/10:30am 21.4 E 10 14 1019.7 - 0.0 - - - - - - -
27/10:00am 21.0 E 10 15 1019.9 - 0.0 - - - - - - -
27/09:30am 20.3 E 9 14 1020.1 - 0.0 - - - - - - -
27/09:00am 19.7 E 9 17 1019.9 - 0.0 - - - - - - -
27/08:30am 17.5 E 6 10 1019.8 - 0.0 - - - - - - -
27/08:00am 16.4 E 6 9 1019.7 - 0.0 - - - - - - -
27/07:30am 16.3 ENE 7 10 1019.8 - 0.0 - - - - - - -
27/07:00am 16.1 ENE 7 10 1019.8 - 0.0 - - - - - - -
27/06:30am 16.0 E 10 15 1019.4 - 0.0 - - - - - - -
27/06:00am 15.9 E 9 15 1019.2 - 0.0 - - - - - - -
27/05:30am 16.0 E 9 16 1019.3 - 0.0 - - - - - - -
27/05:00am 15.9 ESE 9 15 1019.2 - 0.0 - - - - - - -
27/04:30am 16.0 E 11 17 1018.9 - 0.0 - - - - - - -
27/04:00am 15.9 ESE 12 17 1018.9 - 0.0 - - - - - - -
27/03:30am 16.1 ESE 12 17 1018.9 - 0.0 - - - - - - -
27/03:00am 16.2 ESE 9 16 1019.2 - 0.0 - - - - - - -
27/02:30am 16.3 E 12 17 1019.5 - 0.0 - - - - - - -
27/02:00am 16.2 E 11 18 1019.6 - 0.0 - - - - - - -
27/01:30am 16.4 ESE 13 19 1019.6 - 0.0 - - - - - - -
27/01:00am 16.4 ESE 12 20 1020.0 - 0.0 - - - - - - -
27/12:30am 16.5 ESE 11 20 1020.6 - 0.0 - - - - - - -
27/12:00am 16.6 ESE 11 18 1020.8 - 0.0 - - - - - - -
 
Date/Time
CDT
Temp

°C
Wind Pressure Rain
since 9am
mm
Weather Cloud Vis
km
Sea
Height
m
Swell
Dir
 
Speed
knots
Gust
knots
hPa Trend Height
m
Period
s
Dir
26/11:30pm 16.7 ESE 12 18 1021.0 - 0.0 - - - - - - -
26/11:00pm 16.8 ESE 11 19 1021.0 - 0.0 - - - - - - -
26/10:30pm 16.7 ESE 12 19 1021.3 - 0.0 - - - - - - -
26/10:00pm 16.7 ESE 11 19 1021.0 - 0.0 - - - - - - -
26/09:30pm 16.9 ESE 10 16 1020.8 - 0.0 - - - - - - -
26/09:00pm 16.8 ESE 11 18 1020.5 - 0.0 - - - - - - -
26/08:30pm 17.0 ESE 13 17 1020.2 - 0.0 - - - - - - -
26/08:00pm 17.5 ESE 13 20 1020.2 - 0.0 - - - - - - -
26/07:30pm 18.2 ESE 13 20 1020.1 - 0.0 - - - - - - -
26/07:00pm 18.6 ESE 14 19 1019.9 - 0.0 - - - - - - -
26/06:30pm 18.8 SE 15 21 1020.2 - 0.0 - - - - - - -
26/06:00pm 19.5 ESE 14 20 1020.3 - 0.0 - - - - - - -
26/05:30pm 19.5 ESE 13 20 1020.7 - 0.0 - - - - - - -
26/05:00pm 19.8 ESE 13 19 1020.8 - 0.0 - - - - - - -
26/04:30pm 20.5 ESE 12 19 1020.9 - 0.0 - - - - - - -
26/04:00pm 20.7 ESE 14 20 1021.3 - 0.0 - - - - - - -
26/03:30pm 20.7 ESE 13 20 1021.5 - 0.0 - - - - - - -
26/03:00pm 21.2 ESE 13 21 1021.4 - 0.0 - - - - - - -
26/02:30pm 20.3 ESE 13 21 1021.7 - 0.0 - - - - - - -
26/02:00pm 20.9 ESE 13 18 1022.0 - 0.0 - - - - - - -
26/01:30pm 20.9 ESE 13 19 1022.2 - 0.0 - - - - - - -
26/01:00pm 20.9 ESE 12 19 1022.6 - 0.0 - - - - - - -
26/12:30pm 20.3 ESE 11 18 1022.9 - 0.0 - - - - - - -
26/12:00pm 20.0 ESE 10 15 1023.1 - 0.0 - - - - - - -
26/11:30am 20.4 ESE 11 18 1023.0 - 0.0 - - - - - - -
26/11:00am 19.9 ESE 12 19 1023.0 - 0.0 - - - - - - -
26/10:30am 19.7 ESE 11 17 1023.2 - 0.0 - - - - - - -
26/10:00am 19.2 ESE 12 18 1023.4 - 0.0 - - - - - - -
26/09:30am 18.9 ESE 11 18 1023.4 - 0.0 - - - - - - -
26/09:00am 17.7 ESE 10 16 1023.6 - 0.0 - - - - - - -
26/08:30am 17.1 E 7 10 1023.0 - 0.0 - - - - - - -
26/08:00am 15.8 ENE 4 6 1022.9 - 0.0 - - - - - - -
26/07:30am 14.9 NE 4 5 1022.9 - 0.0 - - - - - - -
26/07:00am 14.8 NE 4 4 1022.7 - 0.0 - - - - - - -
26/06:30am 14.8 ENE 4 6 1022.3 - 0.0 - - - - - - -
26/06:00am 15.2 ENE 5 7 1022.1 - 0.0 - - - - - - -
26/05:30am 15.4 E 7 10 1021.7 - 0.0 - - - - - - -
26/05:00am 15.6 E 8 13 1021.7 - 0.0 - - - - - - -
26/04:30am 15.9 ESE 8 14 1021.4 - 0.0 - - - - - - -
26/04:00am 15.8 E 8 12 1020.9 - 0.0 - - - - - - -
26/03:30am 15.9 E 9 14 1020.9 - 0.0 - - - - - - -
26/03:00am 15.9 E 9 14 1021.3 - 0.0 - - - - - - -
26/02:30am 15.7 E 8 13 1021.5 - 0.0 - - - - - - -
26/02:00am 15.5 ESE 9 14 1021.5 - 0.0 - - - - - - -
26/01:30am 15.9 ESE 9 15 1021.7 - 0.0 - - - - - - -
26/01:00am 15.9 ESE 10 15 1021.8 - 0.0 - - - - - - -
26/12:30am 15.7 ESE 10 15 1022.1 - 0.0 - - - - - - -
26/12:00am 16.0 ESE 11 18 1022.3 - 0.0 - - - - - - -
 
Date/Time
CDT
Temp

°C
Wind Pressure Rain
since 9am
mm
Weather Cloud Vis
km
Sea
Height
m
Swell
Dir
 
Speed
knots
Gust
knots
hPa Trend Height
m
Period
s
Dir
25/11:30pm 15.7 SE 11 18 1022.4 - 0.0 - - - - - - -
25/11:00pm 15.7 SE 10 16 1022.8 - 0.0 - - - - - - -
25/10:30pm 15.8 SE 10 15 1023.0 - 0.0 - - - - - - -
25/10:00pm 15.9 SE 10 16 1023.0 - 0.0 - - - - - - -
25/09:30pm 15.9 SE 9 15 1022.8 - 0.0 - - - - - - -
25/09:00pm 16.1 SE 8 13 1022.9 - 0.0 - - - - - - -
25/08:30pm 16.6 SE 9 15 1022.8 - 0.0 - - - - - - -
25/08:00pm 17.4 SE 10 15 1022.5 - 0.0 - - - - - - -
25/07:30pm 18.4 SE 10 15 1022.2 - 0.0 - - - - - - -
25/07:00pm 18.8 SE 11 17 1022.1 - 0.0 - - - - - - -
25/06:30pm 19.0 SE 10 15 1021.9 - 0.0 - - - - - - -
25/06:00pm 19.9 ESE 11 17 1021.9 - 0.0 - - - - - - -
25/05:30pm 19.5 SE 11 18 1022.2 - 0.0 - - - - - - -
25/05:00pm 20.1 SE 10 16 1022.3 - 0.0 - - - - - - -
25/04:30pm 20.5 ESE 12 16 1022.4 - 0.0 - - - - - - -
25/04:00pm 19.9 ESE 11 18 1022.5 - 0.0 - - - - - - -
25/03:30pm 20.7 SE 12 18 1022.7 - 0.0 - - - - - - -
25/03:00pm 20.2 SE 11 18 1022.8 - 0.0 - - - - - - -
25/02:30pm 20.8 SE 10 17 1023.1 - 0.0 - - - - - - -
25/02:00pm 20.9 SE 11 17 1023.3 - 0.0 - - - - - - -
25/01:30pm 20.3 SE 11 18 1023.6 - 0.0 - - - - - - -
25/01:00pm 20.6 SE 9 15 1023.9 - 0.0 - - - - - - -
25/12:30pm 20.8 SE 10 15 1023.8 - 0.0 - - - - - - -
25/12:00pm 20.4 SE 10 17 1024.1 - 0.0 - - - - - - -
25/11:30am 20.0 SE 9 17 1024.1 - 0.0 - - - - - - -
25/11:00am 20.1 ESE 9 15 1024.2 - 0.0 - - - - - - -
25/10:30am 19.1 ESE 7 14 1024.3 - 0.0 - - - - - - -
25/10:00am 18.5 ESE 8 14 1024.5 - 0.0 - - - - - - -
25/09:30am 18.0 ESE 7 11 1024.4 - 0.0 - - - - - - -
25/09:00am 17.3 ENE 7 12 1024.3 - 0.0 - - - - - - -
25/08:30am 16.9 E 6 9 1024.1 - 0.0 - - - - - - -
25/08:00am 16.4 SE 6 9 1023.9 - 0.0 - - - - - - -
25/07:30am 15.8 ESE 6 9 1023.6 - 0.0 - - - - - - -
25/07:00am 15.2 ESE 5 7 1023.4 - 0.0 - - - - - - -
25/06:30am 15.3 ESE 6 8 1023.0 - 0.0 - - - - - - -
25/06:00am 15.3 ESE 6 7 1022.9 - 0.0 - - - - - - -
25/05:30am 14.9 ESE 5 7 1022.6 - 0.0 - - - - - - -
25/05:00am 14.5 ESE 5 8 1022.4 - 0.0 - - - - - - -
25/04:30am 14.2 SE 6 8 1022.4 - 0.0 - - - - - - -
25/04:00am 14.5 SE 7 9 1022.4 - 0.0 - - - - - - -
25/03:30am 15.0 SE 8 11 1022.5 - 0.0 - - - - - - -
25/03:00am 14.8 ESE 7 10 1022.6 - 0.0 - - - - - - -
25/02:30am 14.9 SE 6 8 1022.8 - 0.0 - - - - - - -
25/02:00am 15.2 ESE 5 7 1022.9 - 0.0 - - - - - - -
25/01:30am 14.7 SE 7 9 1023.2 - 0.0 - - - - - - -
25/01:00am 15.1 SE 7 10 1023.3 - 0.0 - - - - - - -
25/12:30am 15.9 SE 8 12 1023.4 - 0.0 - - - - - - -
25/12:00am 15.8 SE 8 10 1023.6 - 0.0 - - - - - - -
 
Date/Time
CDT
Temp

°C
Wind Pressure Rain
since 9am
mm
Weather Cloud Vis
km
Sea
Height
m
Swell
Dir
 
Speed
knots
Gust
knots
hPa Trend Height
m
Period
s
Dir
24/11:30pm 15.4 SE 8 10 1023.5 - 0.0 - - - - - - -
24/11:00pm 15.5 SE 7 10 1023.5 - 0.0 - - - - - - -
24/10:30pm 16.0 SSE 8 11 1023.3 - 0.0 - - - - - - -
24/10:00pm 16.3 SSE 8 14 1023.1 - 0.0 - - - - - - -
24/09:30pm 16.4 S 7 12 1023.0 - 0.0 - - - - - - -
24/09:00pm 16.0 S 6 8 1022.7 - 0.0 - - - - - - -
24/08:30pm 16.5 SSE 7 10 1022.5 - 0.0 - - - - - - -
24/08:00pm 17.2 S 7 12 1022.1 - 0.0 - - - - - - -
24/07:30pm 17.8 SSE 9 14 1021.7 - 0.0 - - - - - - -
24/07:00pm 17.6 S 9 14 1021.3 - 0.0 - - - - - - -
24/06:30pm 19.2 SSE 8 13 1021.2 - 0.0 - - - - - - -
24/06:00pm 18.6 S 8 14 1021.2 - 0.0 - - - - - - -
24/05:30pm 19.9 S 8 12 1021.2 - 0.0 Fine Mostly clear 40 - - - -
24/05:00pm 19.5 S 9 14 1021.2 - 0.0 - - - - - - -
24/04:30pm 20.2 S 9 17 1021.3 - 0.0 - - - - - - -
24/04:00pm 20.0 S 9 19 1021.3 - 0.0 - - - - - - -
24/03:30pm 20.6 S 10 18 1021.5 - 0.0 - - - - - - -
24/03:00pm 20.7 S 11 18 1021.4 - 0.0 - - - - - - -

Other Formats:

Comma delimited format used in spreadsheet applications
http://www.bom.gov.au/fwo/IDS60701/IDS60701.94647.axf

JavaScript Object Notation format (JSON) in row-major order
http://www.bom.gov.au/fwo/IDS60701/IDS60701.94647.json